Time;durP1;ratioP1;P1;durP2;ratioP2;P2;SDS_P1;SDS_P2;PMS_P1;PMS_P2;Temp;Humidity;BMP_temperature;BMP_pressure;BME280_temperature;BME280_humidity;BME280_pressure;Samples;Min_cycle;Max_cycle;Signal;HPM_P1;HPM_P2
2021/05/13 00:00:03;;;;;;;11.80;7.00;;;;;;;;;;5000975;28;20254;-66
2021/05/13 00:02:29;;;;;;;7.17;5.87;;;;;;;;;;5003413;28;20228;-65
2021/05/13 00:04:55;;;;;;;8.30;6.23;;;;;;;;;;5000792;28;20200;-65
2021/05/13 00:07:21;;;;;;;9.30;5.97;;;;;;;;;;5000895;28;20743;-65
2021/05/13 00:09:49;;;;;;;8.73;5.77;;;;;;;;;;5007546;28;20236;-65
2021/05/13 00:12:51;;;;;;;8.13;5.87;;;;;;;;;;5000909;28;20212;-65
2021/05/13 00:15:10;;;;;;;7.27;6.27;;;;;;;;;;5003744;28;20193;-65
2021/05/13 00:17:36;;;;;;;11.07;6.43;;;;;;;;;;5006786;28;20228;-65
2021/05/13 00:20:05;;;;;;;10.07;5.90;;;;;;;;;;5004351;28;20193;-65
2021/05/13 00:22:31;;;;;;;7.87;6.03;;;;;;;;;;5000117;28;20691;-65
2021/05/13 00:24:59;;;;;;;9.13;6.07;;;;;;;;;;5001574;28;20189;-65
2021/05/13 00:27:25;;;;;;;9.20;6.70;;;;;;;;;;5011334;28;20656;-64
2021/05/13 00:29:51;;;;;;;8.77;6.57;;;;;;;;;;5010374;28;20323;-65
2021/05/13 00:32:17;;;;;;;11.27;6.43;;;;;;;;;;5009313;28;20205;-65
2021/05/13 00:34:43;;;;;;;7.07;6.00;;;;;;;;;;5008265;28;20245;-65
2021/05/13 00:37:09;;;;;;;7.67;6.60;;;;;;;;;;5012069;28;20498;-65
2021/05/13 00:39:35;;;;;;;9.67;6.10;;;;;;;;;;5011618;28;20673;-65
2021/05/13 00:42:01;;;;;;;10.87;6.27;;;;;;;;;;5002198;28;20208;-64
2021/05/13 00:44:27;;;;;;;9.40;6.47;;;;;;;;;;5007449;28;20272;-65
2021/05/13 00:46:53;;;;;;;7.80;6.47;;;;;;;;;;5012611;28;20186;-65
2021/05/13 00:49:20;;;;;;;8.67;6.17;;;;;;;;;;5010869;28;20678;-64
2021/05/13 00:51:46;;;;;;;7.23;6.57;;;;;;;;;;5004471;28;20223;-65
2021/05/13 00:54:13;;;;;;;9.17;6.30;;;;;;;;;;5006640;28;20264;-65
2021/05/13 00:56:39;;;;;;;7.47;6.10;;;;;;;;;;5001152;28;20275;-65
2021/05/13 00:59:08;;;;;;;5.70;5.10;;;;;;;;;;5000427;28;20568;-64
2021/05/13 01:01:52;;;;;;;8.03;6.30;;;;;;;;;;5001116;28;20215;-65
2021/05/13 01:04:19;;;;;;;8.90;5.53;;;;;;;;;;5000109;28;20619;-64
2021/05/13 01:06:46;;;;;;;8.70;5.60;;;;;;;;;;5007567;28;20191;-64
2021/05/13 01:09:18;;;;;;;6.80;6.10;;;;;;;;;;5005250;28;20210;-64
2021/05/13 01:11:44;;;;;;;10.90;5.80;;;;;;;;;;5001137;28;20208;-65
2021/05/13 01:16:49;;;;;;;7.30;4.77;;;;;;;;;;5003748;28;20304;-66
2021/05/13 01:19:16;;;;;;;10.47;8.10;;;;;;;;;;5002420;28;20449;-64
2021/05/13 01:21:43;;;;;;;8.17;7.07;;;;;;;;;;5004204;28;20297;-65
2021/05/13 01:24:09;;;;;;;6.35;5.78;;;;;;;;;;5006194;28;20715;-64
2021/05/13 01:26:35;;;;;;;8.10;5.40;;;;;;;;;;5001151;28;20266;-65
2021/05/13 01:29:02;;;;;;;7.47;5.70;;;;;;;;;;5005039;28;20224;-64
2021/05/13 01:31:29;;;;;;;7.67;5.67;;;;;;;;;;5007143;28;20221;-64
2021/05/13 01:33:55;;;;;;;6.23;5.23;;;;;;;;;;5001925;28;20244;-64
2021/05/13 01:36:21;;;;;;;6.70;5.70;;;;;;;;;;5001964;28;20188;-64
2021/05/13 01:38:47;;;;;;;7.10;5.83;;;;;;;;;;5003302;28;20243;-64
2021/05/13 01:41:13;;;;;;;6.93;5.60;;;;;;;;;;5008796;28;20212;-64
2021/05/13 01:43:39;;;;;;;9.67;5.73;;;;;;;;;;5005195;28;20682;-65
2021/05/13 01:46:05;;;;;;;8.03;5.70;;;;;;;;;;4996842;28;20200;-65
2021/05/13 01:48:31;;;;;;;6.17;5.57;;;;;;;;;;5002467;28;20192;-65
2021/05/13 01:50:57;;;;;;;6.87;6.07;;;;;;;;;;5008103;28;20185;-65
2021/05/13 01:53:24;;;;;;;7.43;5.90;;;;;;;;;;5006823;28;20585;-64
2021/05/13 01:55:50;;;;;;;7.80;6.33;;;;;;;;;;4998136;28;20717;-65
2021/05/13 01:58:16;;;;;;;7.47;6.70;;;;;;;;;;5000879;28;20185;-65
2021/05/13 02:00:45;;;;;;;13.57;7.23;;;;;;;;;;5009318;28;20756;-66
2021/05/13 02:03:11;;;;;;;9.67;6.60;;;;;;;;;;5000032;28;20404;-65
2021/05/13 02:05:37;;;;;;;7.57;6.57;;;;;;;;;;5001785;28;20744;-65
2021/05/13 02:08:03;;;;;;;10.00;6.80;;;;;;;;;;5005296;28;20178;-65
2021/05/13 02:10:29;;;;;;;10.17;6.77;;;;;;;;;;4998205;28;20681;-65
2021/05/13 02:12:56;;;;;;;9.70;6.67;;;;;;;;;;4999901;28;20291;-66
2021/05/13 02:15:23;;;;;;;10.53;7.23;;;;;;;;;;5001816;28;20181;-66
2021/05/13 02:17:49;;;;;;;11.10;7.40;;;;;;;;;;5006467;28;20185;-66
2021/05/13 02:20:18;;;;;;;7.67;6.87;;;;;;;;;;4998676;28;20220;-65
2021/05/13 02:22:44;;;;;;;8.27;7.13;;;;;;;;;;4998727;28;20278;-66
2021/05/13 02:25:11;;;;;;;9.00;6.63;;;;;;;;;;5010356;28;20638;-65
2021/05/13 02:27:37;;;;;;;8.50;6.03;;;;;;;;;;5008616;28;20576;-65
2021/05/13 02:30:04;;;;;;;6.90;6.10;;;;;;;;;;4993654;28;20217;-65
2021/05/13 02:32:30;;;;;;;7.17;6.47;;;;;;;;;;5002946;28;20205;-65
2021/05/13 02:34:56;;;;;;;7.70;6.27;;;;;;;;;;5012857;28;20614;-65
2021/05/13 02:37:22;;;;;;;9.13;7.40;;;;;;;;;;4999829;28;20189;-65
2021/05/13 02:39:48;;;;;;;8.43;6.53;;;;;;;;;;4995853;28;20508;-65
2021/05/13 02:42:15;;;;;;;8.10;6.30;;;;;;;;;;4994774;28;20765;-65
2021/05/13 02:44:41;;;;;;;7.80;6.13;;;;;;;;;;5010452;28;20656;-65
2021/05/13 02:47:07;;;;;;;9.37;5.97;;;;;;;;;;4999626;28;20201;-64
2021/05/13 02:49:33;;;;;;;9.97;5.87;;;;;;;;;;5011069;28;20212;-65
2021/05/13 02:51:59;;;;;;;5.83;5.10;;;;;;;;;;5002328;28;20287;-65
2021/05/13 02:54:25;;;;;;;7.03;5.40;;;;;;;;;;5006828;28;20198;-64
2021/05/13 02:56:51;;;;;;;13.67;5.20;;;;;;;;;;4998219;28;20240;-65
2021/05/13 02:59:17;;;;;;;7.37;4.83;;;;;;;;;;5000787;28;20186;-64
2021/05/13 03:01:44;;;;;;;9.27;5.03;;;;;;;;;;4996910;28;20286;-64
2021/05/13 03:04:10;;;;;;;7.33;4.67;;;;;;;;;;4997267;28;20467;-64
2021/05/13 03:06:39;;;;;;;5.33;4.73;;;;;;;;;;4995212;28;20196;-65
2021/05/13 03:09:06;;;;;;;8.13;5.07;;;;;;;;;;4999766;28;20689;-65
2021/05/13 03:11:32;;;;;;;7.07;4.97;;;;;;;;;;5008422;28;20201;-65
2021/05/13 03:14:01;;;;;;;6.77;5.00;;;;;;;;;;5001332;28;20596;-64
2021/05/13 03:16:27;;;;;;;6.20;5.07;;;;;;;;;;5000772;28;20185;-65
2021/05/13 03:18:55;;;;;;;8.73;5.27;;;;;;;;;;4998580;28;20186;-64
2021/05/13 03:21:33;;;;;;;10.73;5.90;;;;;;;;;;4998482;28;20272;-65
2021/05/13 03:24:06;;;;;;;6.60;5.30;;;;;;;;;;4997690;28;20219;-66
2021/05/13 03:27:01;;;;;;;5.47;4.90;;;;;;;;;;5000638;28;20195;-65
2021/05/13 03:29:27;;;;;;;6.87;5.40;;;;;;;;;;5005022;28;20212;-65
2021/05/13 03:31:53;;;;;;;8.10;5.10;;;;;;;;;;5000906;28;20212;-65
2021/05/13 03:34:19;;;;;;;6.83;5.50;;;;;;;;;;5004556;28;20679;-66
2021/05/13 03:36:45;;;;;;;7.67;4.77;;;;;;;;;;4995288;28;20252;-65
2021/05/13 03:39:11;;;;;;;6.47;5.60;;;;;;;;;;5000230;28;20225;-66
2021/05/13 03:41:37;;;;;;;6.50;5.13;;;;;;;;;;4998271;28;20671;-64
2021/05/13 03:44:04;;;;;;;6.73;5.40;;;;;;;;;;5003243;28;20197;-65
2021/05/13 03:46:31;;;;;;;7.33;5.37;;;;;;;;;;5007968;28;20283;-65
2021/05/13 03:48:57;;;;;;;8.73;5.90;;;;;;;;;;4999739;28;20236;-65
2021/05/13 03:51:23;;;;;;;10.23;5.80;;;;;;;;;;4999640;28;20197;-66
2021/05/13 03:53:49;;;;;;;5.97;5.43;;;;;;;;;;5001194;28;20267;-66
2021/05/13 03:56:15;;;;;;;7.60;6.40;;;;;;;;;;4996007;28;20281;-65
2021/05/13 03:58:46;;;;;;;9.63;6.60;;;;;;;;;;5004394;28;20205;-65
2021/05/13 04:01:17;;;;;;;8.30;6.10;;;;;;;;;;4996215;28;20185;-66
2021/05/13 04:03:43;;;;;;;9.33;6.40;;;;;;;;;;5001068;28;20884;-65
2021/05/13 04:06:09;;;;;;;7.93;5.77;;;;;;;;;;5004472;28;20193;-65
2021/05/13 04:08:35;;;;;;;8.60;5.53;;;;;;;;;;5004717;28;20196;-65
2021/05/13 04:11:02;;;;;;;6.67;5.90;;;;;;;;;;5003603;28;20193;-65
2021/05/13 04:13:28;;;;;;;9.27;5.80;;;;;;;;;;5010176;28;20286;-65
2021/05/13 04:15:54;;;;;;;10.47;5.53;;;;;;;;;;5007454;28;20256;-65
2021/05/13 04:18:20;;;;;;;8.10;5.87;;;;;;;;;;4997562;28;20225;-65
2021/05/13 04:20:46;;;;;;;8.60;5.90;;;;;;;;;;5001543;28;20188;-65
2021/05/13 04:23:12;;;;;;;6.33;5.67;;;;;;;;;;5002655;28;20208;-65
2021/05/13 04:25:38;;;;;;;5.97;5.37;;;;;;;;;;5008432;28;20185;-66
2021/05/13 04:28:05;;;;;;;6.70;6.00;;;;;;;;;;5001046;28;20208;-65
2021/05/13 04:30:31;;;;;;;6.77;6.00;;;;;;;;;;5005533;28;20204;-65
2021/05/13 04:32:57;;;;;;;7.77;5.37;;;;;;;;;;5002843;28;20208;-66
2021/05/13 04:35:25;;;;;;;8.90;5.00;;;;;;;;;;5004055;28;20561;-66
2021/05/13 04:37:51;;;;;;;7.20;5.57;;;;;;;;;;5004317;28;20211;-66
2021/05/13 04:40:17;;;;;;;5.27;4.40;;;;;;;;;;5002716;28;20213;-66
2021/05/13 04:42:43;;;;;;;7.73;5.83;;;;;;;;;;5011397;28;20254;-66
2021/05/13 04:45:09;;;;;;;5.37;4.87;;;;;;;;;;5000177;28;20192;-66
2021/05/13 04:50:07;;;;;;;9.43;5.20;;;;;;;;;;4999017;28;20217;-65
2021/05/13 04:52:33;;;;;;;5.73;5.10;;;;;;;;;;5011403;28;20264;-66
2021/05/13 04:54:59;;;;;;;5.47;4.90;;;;;;;;;;5002373;28;20209;-65
2021/05/13 04:57:26;;;;;;;8.37;5.10;;;;;;;;;;5006154;28;20699;-65
2021/05/13 04:59:52;;;;;;;7.67;4.93;;;;;;;;;;5011177;28;20188;-66
2021/05/13 05:02:18;;;;;;;7.37;5.30;;;;;;;;;;5001043;28;20220;-66
2021/05/13 05:04:44;;;;;;;6.47;5.27;;;;;;;;;;5004318;28;20669;-66
2021/05/13 05:07:10;;;;;;;6.93;5.10;;;;;;;;;;4999849;28;20223;-65
2021/05/13 05:09:36;;;;;;;6.10;5.03;;;;;;;;;;5000275;28;20220;-66
2021/05/13 05:12:02;;;;;;;7.60;5.80;;;;;;;;;;4999445;28;20217;-65
2021/05/13 05:14:28;;;;;;;6.60;5.10;;;;;;;;;;5002207;28;20219;-65
2021/05/13 05:16:54;;;;;;;6.70;5.23;;;;;;;;;;5002957;28;20664;-65
2021/05/13 05:19:20;;;;;;;6.13;5.53;;;;;;;;;;5005259;28;20192;-66
2021/05/13 05:21:46;;;;;;;7.10;5.40;;;;;;;;;;5000252;28;20209;-66
2021/05/13 05:24:12;;;;;;;6.28;5.45;;;;;;;;;;5006076;28;20189;-64
2021/05/13 05:26:38;;;;;;;6.22;5.63;;;;;;;;;;5002117;28;20231;-65
2021/05/13 05:29:04;;;;;;;7.15;5.55;;;;;;;;;;5004031;28;20300;-65
2021/05/13 05:31:31;;;;;;;7.43;5.63;;;;;;;;;;5004784;28;20184;-66
2021/05/13 05:33:57;;;;;;;6.67;4.87;;;;;;;;;;5003911;28;20193;-66
2021/05/13 05:36:26;;;;;;;5.55;5.00;;;;;;;;;;5007966;28;20549;-66
2021/05/13 05:38:52;;;;;;;6.07;5.18;;;;;;;;;;5008145;28;20220;-64
2021/05/13 05:41:18;;;;;;;6.28;5.68;;;;;;;;;;5005408;28;20263;-65
2021/05/13 05:43:44;;;;;;;6.10;5.47;;;;;;;;;;5006054;28;20193;-65
2021/05/13 05:46:10;;;;;;;7.72;6.63;;;;;;;;;;4999719;28;21020;-65
2021/05/13 05:48:36;;;;;;;6.18;5.30;;;;;;;;;;5006078;28;20279;-65
2021/05/13 05:51:01;;;;;;;5.78;4.80;;;;;;;;;;5009864;28;20271;-65
2021/05/13 05:53:28;;;;;;;5.68;5.10;;;;;;;;;;5000300;28;20212;-65
2021/05/13 05:55:53;;;;;;;5.07;4.68;;;;;;;;;;5004910;28;20182;-65
2021/05/13 05:58:19;;;;;;;5.32;4.32;;;;;;;;;;5003146;28;20209;-65
2021/05/13 06:00:45;;;;;;;5.07;4.25;;;;;;;;;;5003571;28;20235;-65
2021/05/13 06:03:11;;;;;;;8.38;4.60;;;;;;;;;;5010548;28;20200;-66
2021/05/13 06:05:37;;;;;;;7.80;4.50;;;;;;;;;;5006389;28;20855;-66
2021/05/13 06:08:05;;;;;;;5.20;4.30;;;;;;;;;;4998280;28;20197;-66
2021/05/13 06:10:31;;;;;;;4.45;4.00;;;;;;;;;;5009983;28;20204;-66
2021/05/13 06:12:57;;;;;;;5.05;3.80;;;;;;;;;;5004299;28;20216;-66
2021/05/13 06:15:25;;;;;;;6.40;4.35;;;;;;;;;;5006831;28;22002;-65
2021/05/13 06:17:51;;;;;;;4.28;3.78;;;;;;;;;;5000570;28;20243;-66
2021/05/13 06:20:17;;;;;;;4.57;3.95;;;;;;;;;;5002086;28;20188;-66
2021/05/13 06:22:43;;;;;;;4.78;3.70;;;;;;;;;;4996707;28;20276;-66
2021/05/13 06:25:10;;;;;;;4.38;3.90;;;;;;;;;;4996984;28;20185;-65
2021/05/13 06:27:36;;;;;;;5.22;3.75;;;;;;;;;;4995847;28;20196;-65
2021/05/13 06:30:02;;;;;;;9.15;3.95;;;;;;;;;;5000276;28;20289;-66
2021/05/13 06:32:28;;;;;;;4.28;3.85;;;;;;;;;;5000943;28;20615;-65
2021/05/13 06:34:54;;;;;;;4.00;3.70;;;;;;;;;;4999732;28;20199;-66
2021/05/13 06:37:20;;;;;;;4.05;3.75;;;;;;;;;;4999742;28;20870;-66
2021/05/13 06:39:46;;;;;;;4.03;3.63;;;;;;;;;;5000471;28;20196;-66
2021/05/13 06:42:14;;;;;;;4.35;3.42;;;;;;;;;;4997127;28;20218;-67
2021/05/13 06:44:40;;;;;;;5.60;3.45;;;;;;;;;;5001117;28;20192;-66
2021/05/13 06:47:06;;;;;;;4.53;3.65;;;;;;;;;;4993398;28;20255;-66
2021/05/13 06:49:33;;;;;;;6.50;4.65;;;;;;;;;;4996601;28;20594;-68
2021/05/13 06:51:59;;;;;;;5.00;3.15;;;;;;;;;;4998192;28;20707;-68
2021/05/13 06:54:25;;;;;;;2.92;2.63;;;;;;;;;;4997796;28;20190;-68
2021/05/13 06:56:52;;;;;;;5.15;2.75;;;;;;;;;;5006354;28;20565;-68
2021/05/13 06:59:18;;;;;;;5.75;3.67;;;;;;;;;;5012706;28;20689;-68
2021/05/13 07:01:44;;;;;;;2.95;2.58;;;;;;;;;;4998438;28;20256;-68
2021/05/13 07:04:10;;;;;;;5.82;3.05;;;;;;;;;;4996247;28;20665;-67
2021/05/13 07:06:37;;;;;;;3.38;2.78;;;;;;;;;;4996327;28;20189;-68
2021/05/13 07:09:06;;;;;;;3.35;2.38;;;;;;;;;;4996134;28;20228;-68
2021/05/13 07:11:33;;;;;;;3.63;2.50;;;;;;;;;;4996507;28;20692;-66
2021/05/13 07:13:59;;;;;;;5.75;2.70;;;;;;;;;;4999672;28;20185;-66
2021/05/13 07:16:26;;;;;;;5.68;2.67;;;;;;;;;;4995480;28;20260;-67
2021/05/13 07:18:53;;;;;;;3.75;2.75;;;;;;;;;;4999152;28;20189;-67
2021/05/13 07:21:19;;;;;;;2.95;2.65;;;;;;;;;;4997339;28;20189;-67
2021/05/13 07:23:45;;;;;;;6.00;2.35;;;;;;;;;;5005816;28;20190;-64
2021/05/13 07:26:12;;;;;;;2.83;2.47;;;;;;;;;;4996762;28;20249;-67
2021/05/13 07:28:40;;;;;;;4.35;2.40;;;;;;;;;;5003108;28;20200;-67
2021/05/13 07:31:06;;;;;;;5.68;2.50;;;;;;;;;;5000954;28;20185;-67
2021/05/13 07:33:32;;;;;;;2.97;2.42;;;;;;;;;;4998908;28;20205;-66
2021/05/13 07:35:58;;;;;;;5.60;2.70;;;;;;;;;;4996399;28;20204;-66
2021/05/13 07:38:25;;;;;;;3.75;2.60;;;;;;;;;;4999306;28;20652;-66
2021/05/13 07:40:51;;;;;;;4.97;3.00;;;;;;;;;;5005396;28;20202;-65
2021/05/13 07:43:19;;;;;;;3.55;2.53;;;;;;;;;;5005493;28;20270;-65
2021/05/13 07:45:45;;;;;;;4.25;2.20;;;;;;;;;;5000776;28;20660;-66
2021/05/13 07:48:12;;;;;;;4.88;1.95;;;;;;;;;;5005411;28;20192;-67
2021/05/13 07:50:38;;;;;;;4.97;2.20;;;;;;;;;;5005301;28;20217;-68
2021/05/13 07:53:06;;;;;;;6.15;2.53;;;;;;;;;;5004322;28;20196;-67
2021/05/13 07:55:32;;;;;;;3.17;2.05;;;;;;;;;;5000724;28;20730;-66
2021/05/13 07:57:58;;;;;;;2.25;1.90;;;;;;;;;;5001292;28;20585;-66
2021/05/13 08:00:24;;;;;;;3.60;2.40;;;;;;;;;;5005817;28;20193;-65
2021/05/13 08:02:51;;;;;;;6.85;2.28;;;;;;;;;;5002432;28;20217;-65
2021/05/13 08:05:17;;;;;;;2.90;2.08;;;;;;;;;;5000172;28;20672;-65
2021/05/13 08:07:43;;;;;;;4.63;2.55;;;;;;;;;;5004181;28;20225;-65
2021/05/13 08:10:09;;;;;;;2.75;1.90;;;;;;;;;;5006544;28;20243;-65
2021/05/13 08:12:36;;;;;;;4.05;2.00;;;;;;;;;;4998439;28;20209;-65
2021/05/13 08:15:03;;;;;;;5.13;1.90;;;;;;;;;;5000770;28;20178;-65
2021/05/13 08:17:29;;;;;;;6.00;2.08;;;;;;;;;;5000326;28;20186;-65
2021/05/13 08:19:55;;;;;;;3.35;1.70;;;;;;;;;;4998092;28;20665;-66
2021/05/13 08:22:21;;;;;;;6.07;2.35;;;;;;;;;;4999864;28;20216;-65
2021/05/13 08:24:47;;;;;;;4.30;1.77;;;;;;;;;;5007627;28;20177;-66
2021/05/13 08:27:13;;;;;;;3.53;1.92;;;;;;;;;;5005353;28;20664;-65
2021/05/13 08:29:39;;;;;;;3.30;1.48;;;;;;;;;;5003700;28;20207;-65
2021/05/13 08:32:06;;;;;;;4.28;1.60;;;;;;;;;;5001695;28;20223;-64
2021/05/13 08:34:32;;;;;;;3.45;1.40;;;;;;;;;;5006522;28;20181;-63
2021/05/13 08:36:58;;;;;;;2.83;1.52;;;;;;;;;;4998892;28;20322;-66
2021/05/13 08:39:24;;;;;;;4.70;1.67;;;;;;;;;;4999912;28;20181;-65
2021/05/13 08:41:50;;;;;;;2.45;1.30;;;;;;;;;;4995854;28;20309;-65
2021/05/13 08:44:18;;;;;;;2.72;1.35;;;;;;;;;;5000605;28;20557;-65
2021/05/13 08:46:45;;;;;;;3.38;1.63;;;;;;;;;;5004065;28;20242;-66
2021/05/13 08:49:11;;;;;;;2.40;1.45;;;;;;;;;;4999245;28;20209;-65
2021/05/13 08:51:40;;;;;;;2.95;1.55;;;;;;;;;;5001889;28;20217;-65
2021/05/13 08:54:06;;;;;;;2.67;1.20;;;;;;;;;;5001101;28;20182;-65
2021/05/13 08:56:32;;;;;;;2.92;1.55;;;;;;;;;;5006066;28;20716;-65
2021/05/13 08:59:05;;;;;;;3.25;1.50;;;;;;;;;;5002858;28;20621;-64
2021/05/13 09:01:32;;;;;;;3.72;1.98;;;;;;;;;;4999365;28;20178;-65
2021/05/13 09:03:59;;;;;;;5.28;1.70;;;;;;;;;;5004783;28;20690;-65
2021/05/13 09:06:31;;;;;;;2.33;1.63;;;;;;;;;;5002113;28;20194;-65
2021/05/13 09:09:09;;;;;;;2.88;1.70;;;;;;;;;;4997213;28;20512;-65
2021/05/13 09:11:35;;;;;;;5.60;1.90;;;;;;;;;;5001294;28;20200;-65
2021/05/13 09:14:02;;;;;;;5.60;2.00;;;;;;;;;;5007981;28;20206;-64
2021/05/13 09:16:29;;;;;;;4.70;1.90;;;;;;;;;;5007425;28;20649;-65
2021/05/13 09:18:56;;;;;;;2.33;2.00;;;;;;;;;;5001139;28;20205;-65
2021/05/13 09:21:22;;;;;;;3.25;2.00;;;;;;;;;;5009214;28;20191;-65
2021/05/13 09:23:48;;;;;;;3.50;3.20;;;;;;;;;;5008382;28;20271;-65
2021/05/13 09:26:16;;;;;;;2.60;1.90;;;;;;;;;;5003208;28;20303;-65
2021/05/13 09:28:43;;;;;;;3.45;1.60;;;;;;;;;;5001744;28;20190;-65
2021/05/13 09:31:29;;;;;;;2.55;2.00;;;;;;;;;;5012114;28;20185;-65
2021/05/13 09:34:01;;;;;;;3.38;3.00;;;;;;;;;;5006047;28;20185;-65
2021/05/13 09:36:27;;;;;;;4.43;2.97;;;;;;;;;;5003891;28;20618;-64
2021/05/13 09:38:54;;;;;;;3.70;2.22;;;;;;;;;;5003657;28;20185;-64
2021/05/13 09:41:29;;;;;;;4.25;2.55;;;;;;;;;;5005614;28;20239;-64
2021/05/13 09:43:55;;;;;;;3.60;2.25;;;;;;;;;;4999653;28;20300;-64
2021/05/13 09:46:32;;;;;;;3.08;2.05;;;;;;;;;;4999434;28;20193;-64
2021/05/13 09:48:58;;;;;;;3.38;2.08;;;;;;;;;;5009960;28;20303;-64
2021/05/13 09:51:37;;;;;;;2.88;1.90;;;;;;;;;;5001603;28;20224;-63
2021/05/13 09:54:08;;;;;;;2.65;1.80;;;;;;;;;;5001898;28;20185;-64
2021/05/13 09:56:34;;;;;;;4.35;2.17;;;;;;;;;;5008350;28;20207;-64
2021/05/13 09:59:19;;;;;;;6.05;2.20;;;;;;;;;;5010072;28;20584;-64
2021/05/13 10:01:45;;;;;;;2.97;1.70;;;;;;;;;;5004002;28;20213;-63
2021/05/13 10:04:11;;;;;;;3.05;1.98;;;;;;;;;;5000611;28;20221;-64
2021/05/13 10:06:37;;;;;;;3.42;2.00;;;;;;;;;;5009185;28;20193;-64
2021/05/13 10:09:04;;;;;;;4.90;1.70;;;;;;;;;;5001485;28;20197;-65
2021/05/13 10:11:30;;;;;;;3.28;1.52;;;;;;;;;;5013091;28;20215;-64
2021/05/13 10:13:56;;;;;;;3.80;1.70;;;;;;;;;;5002662;28;20193;-65
2021/05/13 10:16:23;;;;;;;25.55;22.23;;;;;;;;;;5004890;28;20220;-65
2021/05/13 10:18:52;;;;;;;3.95;2.05;;;;;;;;;;5003445;28;20192;-65
2021/05/13 10:21:20;;;;;;;2.13;1.67;;;;;;;;;;5003649;28;20272;-64
2021/05/13 10:23:47;;;;;;;3.58;1.40;;;;;;;;;;5005589;28;20291;-64
2021/05/13 10:26:28;;;;;;;3.13;1.95;;;;;;;;;;5002036;28;20192;-65
2021/05/13 10:28:54;;;;;;;3.03;2.30;;;;;;;;;;4997398;28;20216;-65
2021/05/13 10:31:34;;;;;;;3.67;2.30;;;;;;;;;;5006048;28;20182;-64
2021/05/13 10:34:00;;;;;;;4.97;2.65;;;;;;;;;;5008475;28;20541;-63
2021/05/13 10:36:26;;;;;;;4.70;2.50;;;;;;;;;;5008864;28;20182;-64
2021/05/13 10:38:53;;;;;;;6.03;2.50;;;;;;;;;;5003182;28;20613;-64
2021/05/13 10:41:31;;;;;;;2.97;2.47;;;;;;;;;;5004764;28;20181;-66
2021/05/13 10:44:09;;;;;;;4.97;2.50;;;;;;;;;;5003190;28;20240;-63
2021/05/13 10:46:36;;;;;;;4.65;2.28;;;;;;;;;;5001066;28;20235;-64
2021/05/13 10:49:18;;;;;;;5.22;2.33;;;;;;;;;;5003984;28;20202;-64
2021/05/13 10:51:46;;;;;;;2.90;2.53;;;;;;;;;;5004692;28;20212;-64
2021/05/13 10:54:31;;;;;;;5.38;2.22;;;;;;;;;;5002939;28;20232;-64
2021/05/13 10:57:18;;;;;;;4.97;2.40;;;;;;;;;;5005003;28;20234;-65
2021/05/13 11:00:02;;;;;;;4.70;2.38;;;;;;;;;;5000852;28;20178;-65
2021/05/13 11:02:38;;;;;;;9.05;2.85;;;;;;;;;;5003205;28;20573;-65
2021/05/13 11:05:39;;;;;;;5.68;2.53;;;;;;;;;;5001681;28;20191;-65
2021/05/13 11:08:25;;;;;;;7.15;2.55;;;;;;;;;;4985040;28;20663;-65
2021/05/13 11:11:02;;;;;;;3.00;2.00;;;;;;;;;;4988365;28;20217;-64
2021/05/13 11:13:41;;;;;;;4.22;2.00;;;;;;;;;;4984478;28;20206;-64
2021/05/13 11:16:07;;;;;;;5.35;2.35;;;;;;;;;;4983874;28;20627;-64
2021/05/13 11:18:33;;;;;;;6.13;1.88;;;;;;;;;;4982760;28;20285;-64
2021/05/13 11:20:59;;;;;;;3.70;1.95;;;;;;;;;;4986180;28;20190;-65
2021/05/13 11:23:27;;;;;;;2.67;1.83;;;;;;;;;;4986814;28;20708;-64
2021/05/13 11:25:54;;;;;;;2.88;2.10;;;;;;;;;;4985896;28;20240;-64
2021/05/13 11:28:20;;;;;;;4.72;1.70;;;;;;;;;;4988631;28;20213;-64
2021/05/13 11:30:47;;;;;;;4.22;1.90;;;;;;;;;;4986271;28;20247;-65
2021/05/13 11:33:13;;;;;;;3.53;1.70;;;;;;;;;;4984739;28;20284;-65
2021/05/13 11:35:39;;;;;;;5.68;2.03;;;;;;;;;;4985607;28;20304;-64
2021/05/13 11:38:15;;;;;;;3.25;1.35;;;;;;;;;;4983843;28;20202;-64
2021/05/13 11:40:41;;;;;;;3.47;1.30;;;;;;;;;;4988273;28;20287;-65
2021/05/13 11:43:22;;;;;;;3.90;1.27;;;;;;;;;;4985554;28;20212;-64
2021/05/13 11:45:48;;;;;;;3.58;1.20;;;;;;;;;;5005406;28;20179;-64
2021/05/13 11:48:34;;;;;;;1.73;1.30;;;;;;;;;;5004274;28;20194;-64
2021/05/13 11:51:01;;;;;;;3.03;1.33;;;;;;;;;;4998521;28;20216;-64
2021/05/13 11:53:28;;;;;;;1.85;1.10;;;;;;;;;;5005212;28;20328;-64
2021/05/13 11:55:54;;;;;;;1.02;0.98;;;;;;;;;;5003948;28;20269;-64
2021/05/13 11:58:40;;;;;;;0.98;0.95;;;;;;;;;;4997717;28;20645;-65
2021/05/13 12:01:13;;;;;;;1.10;1.00;;;;;;;;;;4998749;28;20720;-66
2021/05/13 12:03:39;;;;;;;2.17;1.08;;;;;;;;;;4999547;28;20589;-65
2021/05/13 12:06:05;;;;;;;1.33;1.17;;;;;;;;;;5003879;28;20315;-65
2021/05/13 12:08:31;;;;;;;1.83;1.17;;;;;;;;;;5003140;28;20189;-65
2021/05/13 12:10:58;;;;;;;2.67;1.10;;;;;;;;;;4997203;28;20202;-65
2021/05/13 12:13:27;;;;;;;1.50;1.00;;;;;;;;;;5001442;28;20350;-64
2021/05/13 12:16:03;;;;;;;2.38;1.33;;;;;;;;;;5003222;28;20267;-65
2021/05/13 12:18:29;;;;;;;2.90;1.20;;;;;;;;;;5001053;28;20553;-64
2021/05/13 12:20:56;;;;;;;1.50;1.27;;;;;;;;;;4997824;28;20668;-64
2021/05/13 12:23:22;;;;;;;1.10;1.00;;;;;;;;;;5004071;28;20218;-64
2021/05/13 12:25:48;;;;;;;2.53;1.30;;;;;;;;;;5001549;28;20189;-64
2021/05/13 12:28:16;;;;;;;1.48;1.27;;;;;;;;;;5005562;28;20201;-64
2021/05/13 12:30:49;;;;;;;1.42;1.20;;;;;;;;;;5009485;28;20279;-64
2021/05/13 12:33:25;;;;;;;2.03;1.20;;;;;;;;;;5003881;28;20208;-66
2021/05/13 12:35:52;;;;;;;1.35;1.25;;;;;;;;;;4998463;28;20267;-65
2021/05/13 12:38:21;;;;;;;2.22;1.13;;;;;;;;;;4998741;28;20193;-65
2021/05/13 12:40:47;;;;;;;1.25;1.15;;;;;;;;;;5000548;28;20246;-64
2021/05/13 12:43:17;;;;;;;1.35;1.00;;;;;;;;;;4997210;28;20200;-64
2021/05/13 12:45:50;;;;;;;1.15;1.02;;;;;;;;;;4996804;28;20684;-65
2021/05/13 12:48:23;;;;;;;1.35;1.00;;;;;;;;;;4998837;28;20189;-65
2021/05/13 12:51:00;;;;;;;1.00;0.90;;;;;;;;;;4996529;28;20292;-65
2021/05/13 12:53:27;;;;;;;2.80;1.38;;;;;;;;;;5003093;28;20201;-65
2021/05/13 12:55:53;;;;;;;3.25;1.00;;;;;;;;;;5000359;28;20692;-64
2021/05/13 12:58:21;;;;;;;2.35;1.10;;;;;;;;;;5006764;28;20180;-64
2021/05/13 13:00:59;;;;;;;1.35;1.00;;;;;;;;;;5006361;28;20281;-64
2021/05/13 13:03:31;;;;;;;2.42;0.80;;;;;;;;;;5008687;28;20290;-64
2021/05/13 13:06:06;;;;;;;2.10;1.17;;;;;;;;;;5004488;28;20248;-64
2021/05/13 13:08:36;;;;;;;1.40;1.00;;;;;;;;;;5004448;28;20560;-64
2021/05/13 13:11:02;;;;;;;1.83;1.00;;;;;;;;;;5005007;28;20266;-64
2021/05/13 13:13:40;;;;;;;1.58;1.08;;;;;;;;;;5008497;28;20291;-64
2021/05/13 13:16:14;;;;;;;3.13;1.02;;;;;;;;;;5002738;28;20525;-65
2021/05/13 13:18:40;;;;;;;1.27;0.75;;;;;;;;;;5003240;28;20267;-64
2021/05/13 13:21:17;;;;;;;2.67;1.40;;;;;;;;;;5001933;28;20720;-64
2021/05/13 13:23:43;;;;;;;2.65;1.95;;;;;;;;;;5003927;28;20667;-64
2021/05/13 13:26:10;;;;;;;2.05;1.10;;;;;;;;;;5001553;28;20181;-64
2021/05/13 13:28:40;;;;;;;1.67;0.80;;;;;;;;;;5011982;28;20197;-65
2021/05/13 13:31:10;;;;;;;1.20;0.93;;;;;;;;;;5006106;28;20201;-64
2021/05/13 13:33:37;;;;;;;1.17;0.80;;;;;;;;;;5002997;28;20722;-65
2021/05/13 13:36:03;;;;;;;2.42;1.60;;;;;;;;;;5006763;28;20199;-64
2021/05/13 13:38:30;;;;;;;2.17;1.20;;;;;;;;;;5002903;28;20542;-64
2021/05/13 13:40:58;;;;;;;1.13;0.73;;;;;;;;;;5004925;28;20193;-64
2021/05/13 13:43:25;;;;;;;2.53;0.93;;;;;;;;;;5007528;28;20205;-65
2021/05/13 13:45:51;;;;;;;1.60;1.10;;;;;;;;;;5007589;28;20674;-65
2021/05/13 13:48:19;;;;;;;0.63;0.60;;;;;;;;;;5003824;28;20190;-65
2021/05/13 13:50:46;;;;;;;1.48;0.65;;;;;;;;;;5009264;28;20224;-64
2021/05/13 13:53:12;;;;;;;1.30;0.63;;;;;;;;;;4999908;28;20213;-64
2021/05/13 13:55:38;;;;;;;1.60;0.77;;;;;;;;;;5010432;28;20239;-65
2021/05/13 13:58:05;;;;;;;0.70;0.60;;;;;;;;;;5004033;28;20289;-65
2021/05/13 14:00:31;;;;;;;0.90;0.60;;;;;;;;;;5003906;28;20200;-65
2021/05/13 14:02:57;;;;;;;1.23;0.90;;;;;;;;;;4999103;28;20255;-64
2021/05/13 14:05:24;;;;;;;0.85;0.70;;;;;;;;;;4999504;28;20205;-64
2021/05/13 14:07:50;;;;;;;0.93;0.47;;;;;;;;;;5000899;28;20240;-65
2021/05/13 14:10:17;;;;;;;1.40;0.60;;;;;;;;;;5003346;28;20213;-65
2021/05/13 14:12:44;;;;;;;1.23;0.77;;;;;;;;;;5009840;28;20227;-64
2021/05/13 14:15:10;;;;;;;4.68;0.88;;;;;;;;;;4995691;28;20559;-64
2021/05/13 14:17:36;;;;;;;1.00;0.60;;;;;;;;;;5006287;28;21388;-64
2021/05/13 14:20:04;;;;;;;1.80;0.50;;;;;;;;;;5007619;28;20185;-65
2021/05/13 14:22:30;;;;;;;1.40;0.60;;;;;;;;;;5003720;28;20209;-65
2021/05/13 14:24:56;;;;;;;0.80;0.75;;;;;;;;;;5003701;28;23113;-65
2021/05/13 14:27:22;;;;;;;0.77;0.77;;;;;;;;;;5009042;28;20275;-64
2021/05/13 14:29:48;;;;;;;1.27;0.70;;;;;;;;;;5007608;28;20707;-64
2021/05/13 14:32:14;;;;;;;0.63;0.57;;;;;;;;;;5004742;28;20263;-64
2021/05/13 14:34:41;;;;;;;0.50;0.50;;;;;;;;;;5001183;28;20551;-65
2021/05/13 14:37:07;;;;;;;1.15;0.60;;;;;;;;;;5000835;28;20182;-64
2021/05/13 14:39:33;;;;;;;0.68;0.60;;;;;;;;;;5006316;28;20239;-64
2021/05/13 14:41:59;;;;;;;0.93;0.90;;;;;;;;;;5004719;28;20202;-65
2021/05/13 14:44:25;;;;;;;1.52;0.80;;;;;;;;;;5003562;28;20181;-65
2021/05/13 14:46:52;;;;;;;1.10;1.00;;;;;;;;;;5002239;28;20201;-66
2021/05/13 14:49:28;;;;;;;0.90;0.90;;;;;;;;;;5005320;28;20220;-65
2021/05/13 14:51:54;;;;;;;1.02;0.82;;;;;;;;;;4999466;28;20214;-64